Terminal Aerodrome Forecast
Issued by NWS

Home | Current Version | Previous Version | Text Only | Print | Product List | Glossary Off
Versions: 1 2 3 4 5 6 7 8 9 10 11 12 13 14 15 16 17 18 19 20 21 22

000
FTUS43 KDLH 252300
TAFHIB
TAF
KHIB 252327Z 2600/2624 31004KT P6SM OVC022
     FM260300 34005KT P6SM -FZDZ OVC012
     FM261600 32007KT P6SM -SN OVC015
     FM262100 33005KT P6SM BKN022 OVC035=

USA.gov is the U.S. government's official web portal to all federal, state and local government web resources and services.